Grandin, Florida
Current Conditions -  °F | °C
As of 3:55 PM on Tuesday 27 Jan 2015 (Local Time) from K42J Reporting Station
Clear Clear  
Wind Chill: 18°   Ceiling: Unl
Heat Index: 18°   Visibility: 10mi
Dew Point:   Wind: 13mph
Humidity: 32%   Direction: 290°WNW
Pressure: 29.88"   Gusts: 24mph
Location:  29.73°N, 81.92°W
Report Text: K42J 272055Z AUTO 29011G21KT 10SM CLR 18/01 A2988 RMK AO1 TSNO
Loading
Personal Weather Stations






























Interactive Weather Map New forecast layout! Learn more

10-Day Weather Forecast

Advertisements
Track Severe Weather on mobile